createdAt,value
2022-12-25T00:01:20.907Z,17.90
2022-12-25T00:03:50.582Z,16.50
2022-12-25T00:06:18.123Z,15.87
2022-12-25T00:08:44.516Z,19.00
2022-12-25T00:11:14.311Z,20.50
2022-12-25T00:13:40.963Z,21.90
2022-12-25T00:16:10.651Z,17.13
2022-12-25T00:18:36.833Z,18.93
2022-12-25T00:21:06.150Z,18.63
2022-12-25T00:23:34.215Z,14.53
2022-12-25T00:26:05.302Z,16.90
2022-12-25T00:28:31.437Z,14.73
2022-12-25T00:30:57.894Z,19.53
2022-12-25T00:33:25.392Z,18.60
2022-12-25T00:35:59.291Z,18.70
2022-12-25T00:38:25.787Z,16.73
2022-12-25T00:40:52.433Z,20.03
2022-12-25T00:43:19.007Z,17.23
2022-12-25T00:45:54.827Z,20.53
2022-12-25T00:48:21.012Z,17.30
2022-12-25T00:50:47.500Z,20.30
2022-12-25T00:53:13.676Z,16.77
2022-12-25T00:55:40.148Z,19.17
2022-12-25T00:58:06.300Z,20.50
2022-12-25T01:00:33.149Z,19.47
2022-12-25T01:02:59.602Z,27.00
2022-12-25T01:05:26.544Z,23.87
2022-12-25T01:07:52.730Z,27.93
2022-12-25T01:10:21.755Z,26.40
2022-12-25T01:12:49.708Z,29.00
2022-12-25T01:15:16.720Z,23.53
2022-12-25T01:17:43.748Z,23.13
2022-12-25T01:20:12.566Z,24.27
2022-12-25T01:22:38.892Z,38.00
2022-12-25T01:25:06.438Z,51.23
2022-12-25T01:27:32.801Z,38.23
2022-12-25T01:29:59.345Z,32.77
2022-12-25T01:32:25.659Z,28.27
2022-12-25T01:34:56.213Z,29.30
2022-12-25T01:37:25.728Z,24.37
2022-12-25T01:39:53.074Z,23.27
2022-12-25T01:42:22.915Z,23.23
2022-12-25T01:44:49.578Z,19.87
2022-12-25T01:47:16.970Z,21.73
2022-12-25T01:49:47.000Z,20.43
2022-12-25T01:52:23.607Z,19.27
2022-12-25T01:54:57.941Z,17.70
2022-12-25T01:57:30.575Z,18.93
2022-12-25T01:59:59.357Z,21.80
2022-12-25T02:02:27.345Z,20.17
2022-12-25T02:05:09.265Z,23.73
2022-12-25T02:07:37.429Z,20.40
2022-12-25T02:10:04.261Z,20.57
2022-12-25T02:12:33.306Z,20.77
2022-12-25T02:15:06.050Z,20.33
2022-12-25T02:17:38.787Z,20.13
2022-12-25T02:20:23.400Z,15.90
2022-12-25T02:23:07.921Z,16.77
2022-12-25T02:26:04.861Z,20.47
2022-12-25T02:28:52.970Z,18.73
2022-12-25T02:31:45.834Z,19.23
2022-12-25T02:34:11.978Z,19.67
2022-12-25T02:37:00.223Z,19.63
2022-12-25T02:39:48.147Z,18.63
2022-12-25T02:42:49.051Z,21.37
2022-12-25T02:45:43.755Z,18.60
2022-12-25T02:48:31.189Z,18.93
2022-12-25T02:51:18.946Z,21.00
2022-12-25T02:54:06.728Z,19.00
2022-12-25T02:56:54.037Z,17.37
2022-12-25T02:59:40.768Z,18.57
2022-12-25T03:02:26.725Z,19.80
2022-12-25T03:05:15.904Z,24.23
2022-12-25T03:07:43.860Z,19.87
2022-12-25T03:10:32.894Z,17.50
2022-12-25T03:13:16.318Z,19.13
2022-12-25T03:16:01.827Z,23.17
2022-12-25T03:18:30.763Z,20.70
2022-12-25T03:21:16.851Z,17.47
2022-12-25T03:24:12.881Z,19.63
2022-12-25T03:26:54.513Z,17.87
2022-12-25T03:29:46.553Z,16.83
2022-12-25T03:32:19.424Z,16.77
2022-12-25T03:35:24.598Z,13.00
2022-12-25T03:38:31.796Z,12.43
2022-12-25T03:41:35.040Z,13.63
2022-12-25T03:44:43.132Z,13.87
2022-12-25T03:47:20.757Z,14.33
2022-12-25T03:50:37.984Z,12.97
2022-12-25T03:53:29.686Z,13.93
2022-12-25T03:56:16.127Z,12.47
2022-12-25T03:59:13.005Z,15.17
2022-12-25T04:02:01.559Z,18.43
2022-12-25T04:04:46.818Z,15.80
2022-12-25T04:07:32.285Z,16.63
2022-12-25T04:10:16.968Z,14.00
2022-12-25T04:13:02.180Z,13.37
2022-12-25T04:15:46.933Z,11.30
2022-12-25T04:18:31.853Z,15.07
2022-12-25T04:21:16.733Z,10.30
2022-12-25T04:24:01.805Z,11.80
2022-12-25T04:26:46.617Z,9.43
2022-12-25T04:29:31.884Z,9.80
2022-12-25T04:32:16.710Z,12.07
2022-12-25T04:35:01.475Z,12.10
2022-12-25T04:37:27.742Z,11.83
2022-12-25T04:39:54.213Z,14.70
2022-12-25T04:42:20.335Z,11.03
2022-12-25T04:44:47.073Z,11.23
2022-12-25T04:47:13.169Z,11.43
2022-12-25T04:49:39.664Z,11.57
2022-12-25T04:52:05.941Z,14.00
2022-12-25T04:54:32.381Z,13.07
2022-12-25T04:56:58.595Z,12.03
2022-12-25T04:59:25.051Z,12.80
2022-12-25T05:01:51.353Z,14.17
2022-12-25T05:04:17.842Z,10.77
2022-12-25T05:06:44.125Z,10.57
2022-12-25T05:09:10.588Z,11.13
2022-12-25T05:11:36.826Z,17.07
2022-12-25T05:14:03.290Z,8.80
2022-12-25T05:16:30.052Z,9.93
2022-12-25T05:18:56.949Z,10.03
2022-12-25T05:21:23.358Z,10.17
2022-12-25T05:23:50.907Z,11.80
2022-12-25T05:26:20.013Z,11.20
2022-12-25T05:28:47.171Z,13.33
2022-12-25T05:31:13.863Z,9.17
2022-12-25T05:33:40.538Z,13.80
2022-12-25T05:36:08.809Z,9.33
2022-12-25T05:38:35.669Z,10.33
2022-12-25T05:41:01.939Z,13.17
2022-12-25T05:43:29.005Z,10.50
2022-12-25T05:45:55.660Z,10.90
2022-12-25T05:48:22.632Z,11.30
2022-12-25T05:50:48.965Z,10.70
2022-12-25T05:53:15.714Z,14.07
2022-12-25T05:55:43.014Z,8.50
2022-12-25T05:58:11.419Z,9.70
2022-12-25T06:00:38.115Z,8.07
2022-12-25T06:03:04.817Z,9.37
2022-12-25T06:05:32.079Z,11.53
2022-12-25T06:07:58.802Z,11.17
2022-12-25T06:10:25.144Z,9.53
2022-12-25T06:12:51.940Z,11.10
2022-12-25T06:15:18.525Z,9.67
2022-12-25T06:17:45.109Z,10.93
2022-12-25T06:20:11.308Z,11.80
2022-12-25T06:22:37.893Z,10.13
2022-12-25T06:25:04.401Z,13.60
2022-12-25T06:27:31.042Z,10.60
2022-12-25T06:29:57.609Z,11.93
2022-12-25T06:32:24.234Z,10.60
2022-12-25T06:34:50.524Z,10.53
2022-12-25T06:37:17.312Z,7.27
2022-12-25T06:39:43.773Z,13.27
2022-12-25T06:42:10.809Z,9.87
2022-12-25T06:44:37.864Z,9.97
2022-12-25T06:47:04.643Z,9.57
2022-12-25T06:49:30.818Z,10.23
2022-12-25T06:51:57.362Z,9.17
2022-12-25T06:54:23.652Z,9.20
2022-12-25T06:56:50.435Z,11.53
2022-12-25T06:59:16.773Z,9.47
2022-12-25T07:01:47.820Z,11.67
2022-12-25T07:04:23.709Z,8.07
2022-12-25T07:06:50.431Z,10.50
2022-12-25T07:09:16.667Z,12.37
2022-12-25T07:11:43.192Z,11.00
2022-12-25T07:14:24.313Z,12.17
2022-12-25T07:16:51.619Z,8.37
2022-12-25T07:19:18.647Z,13.07
2022-12-25T07:21:45.918Z,9.87
2022-12-25T07:24:17.748Z,10.27
2022-12-25T07:26:44.233Z,10.90
2022-12-25T07:29:10.430Z,13.17
2022-12-25T07:31:37.120Z,11.53
2022-12-25T07:34:03.396Z,11.17
2022-12-25T07:36:29.981Z,10.77
2022-12-25T07:38:56.578Z,10.47
2022-12-25T07:41:23.053Z,8.77
2022-12-25T07:43:51.242Z,10.27
2022-12-25T07:46:18.459Z,8.53
2022-12-25T07:48:44.773Z,10.53
2022-12-25T07:51:13.292Z,11.03
2022-12-25T07:53:40.199Z,12.80
2022-12-25T07:56:17.758Z,13.17
2022-12-25T07:58:44.785Z,10.60
2022-12-25T08:01:26.149Z,12.10
2022-12-25T08:03:55.532Z,14.17
2022-12-25T08:06:28.867Z,13.37
2022-12-25T08:09:07.153Z,12.20
2022-12-25T08:11:34.266Z,12.57
2022-12-25T08:18:29.850Z,11.97
2022-12-25T08:21:00.964Z,12.13
2022-12-25T08:23:27.522Z,10.07
2022-12-25T08:26:04.233Z,10.70
2022-12-25T08:28:33.366Z,10.50
2022-12-25T08:31:04.653Z,12.80
2022-12-25T08:33:31.299Z,12.17
2022-12-25T08:36:04.287Z,13.87
2022-12-25T08:38:30.917Z,11.93
2022-12-25T08:40:57.509Z,10.70
2022-12-25T08:43:24.116Z,12.43
2022-12-25T08:45:50.334Z,11.80
2022-12-25T08:48:17.021Z,13.97
2022-12-25T08:50:48.334Z,11.93
2022-12-25T08:53:19.470Z,14.67
2022-12-25T08:55:48.613Z,15.40
2022-12-25T08:58:15.889Z,18.50
2022-12-25T09:00:42.516Z,12.70
2022-12-25T09:03:09.144Z,14.97
2022-12-25T09:05:36.183Z,16.40
2022-12-25T09:08:03.339Z,14.23
2022-12-25T09:10:29.624Z,18.20
2022-12-25T09:12:56.417Z,17.17
2022-12-25T09:15:22.879Z,14.50
2022-12-25T09:17:49.391Z,9.43
2022-12-25T09:20:15.597Z,14.13
2022-12-25T09:22:42.111Z,12.47
2022-12-25T09:25:08.820Z,9.63
2022-12-25T09:27:35.344Z,10.17
2022-12-25T09:30:01.784Z,13.43
2022-12-25T09:32:28.582Z,12.37
2022-12-25T09:34:54.823Z,11.17
2022-12-25T09:37:21.691Z,12.57
2022-12-25T09:39:48.060Z,12.87
2022-12-25T09:42:19.834Z,11.53
2022-12-25T09:44:57.113Z,13.50
2022-12-25T09:47:29.026Z,14.27
2022-12-25T09:50:13.302Z,13.10
2022-12-25T09:52:52.687Z,16.10
2022-12-25T09:55:24.842Z,23.50
2022-12-25T09:57:55.225Z,18.30
2022-12-25T10:00:31.435Z,20.57
2022-12-25T10:03:14.763Z,19.20
2022-12-25T10:06:05.962Z,16.17
2022-12-25T10:08:41.347Z,19.10
2022-12-25T10:11:43.890Z,18.10
2022-12-25T10:14:39.515Z,22.10
2022-12-25T10:17:43.070Z,22.47
2022-12-25T10:20:36.361Z,25.70
2022-12-25T10:23:11.421Z,21.57
2022-12-25T10:25:38.658Z,25.63
2022-12-25T10:28:13.515Z,28.00
2022-12-25T10:30:43.374Z,29.97
2022-12-25T10:33:16.877Z,33.17
2022-12-25T10:35:45.118Z,36.53
2022-12-25T10:38:17.148Z,33.20
2022-12-25T10:40:44.224Z,35.67
2022-12-25T10:43:28.213Z,40.93
2022-12-25T10:45:54.900Z,37.07
2022-12-25T10:48:27.337Z,34.43
2022-12-25T10:50:55.378Z,45.90
2022-12-25T10:53:24.940Z,29.67
2022-12-25T10:55:55.322Z,31.83
2022-12-25T10:58:21.689Z,32.13
2022-12-25T11:00:54.644Z,39.77
2022-12-25T11:03:29.059Z,38.10
2022-12-25T11:05:56.195Z,39.60
2022-12-25T11:08:25.988Z,34.33
2022-12-25T11:10:54.155Z,28.97
2022-12-25T11:13:24.568Z,33.53
2022-12-25T11:16:03.823Z,22.67
2022-12-25T11:18:43.876Z,42.03
2022-12-25T11:21:14.826Z,25.53
2022-12-25T11:23:54.822Z,23.13
2022-12-25T11:26:22.233Z,23.20
2022-12-25T11:28:50.715Z,55.20
2022-12-25T11:31:21.086Z,27.67
2022-12-25T11:34:04.475Z,24.83
2022-12-25T11:36:43.814Z,20.73
2022-12-25T11:39:22.336Z,25.33
2022-12-25T11:41:53.500Z,22.23
2022-12-25T11:44:51.913Z,31.60
2022-12-25T11:47:30.298Z,25.57
2022-12-25T11:50:04.625Z,24.27
2022-12-25T11:52:36.069Z,34.97
2022-12-25T11:55:40.277Z,32.37
2022-12-25T11:58:38.423Z,21.33
2022-12-25T12:01:16.549Z,21.00
2022-12-25T12:03:44.539Z,33.13
2022-12-25T12:06:29.309Z,35.23
2022-12-25T12:09:21.463Z,48.87
2022-12-25T12:11:58.315Z,28.57
2022-12-25T12:14:25.009Z,61.67
2022-12-25T12:16:51.504Z,51.90
2022-12-25T12:19:30.128Z,51.73
2022-12-25T12:22:00.965Z,28.03
2022-12-25T12:24:34.097Z,36.63
2022-12-25T12:27:12.545Z,39.67
2022-12-25T12:29:43.917Z,26.23
2022-12-25T12:32:42.193Z,28.17
2022-12-25T12:35:21.471Z,24.53
2022-12-25T12:38:12.665Z,26.63
2022-12-25T12:40:41.448Z,24.97
2022-12-25T12:43:39.979Z,28.30
2022-12-25T12:46:31.746Z,28.37
2022-12-25T12:49:21.032Z,29.20
2022-12-25T12:51:48.244Z,24.27
2022-12-25T12:54:22.464Z,41.10
2022-12-25T12:57:19.761Z,28.67
2022-12-25T12:59:47.079Z,22.43
2022-12-25T13:02:42.817Z,23.00
2022-12-25T13:05:41.685Z,21.87
2022-12-25T13:08:26.472Z,25.47
2022-12-25T13:11:06.083Z,21.13
2022-12-25T13:13:43.710Z,26.53
2022-12-25T13:16:22.061Z,24.00
2022-12-25T13:18:51.359Z,15.17
2022-12-25T13:21:22.585Z,18.60
2022-12-25T13:23:59.287Z,20.50
2022-12-25T13:26:26.423Z,20.13
2022-12-25T13:28:55.207Z,20.47
2022-12-25T13:31:26.926Z,20.27
2022-12-25T13:34:00.115Z,21.33
2022-12-25T13:36:28.807Z,20.47
2022-12-25T13:38:58.060Z,32.57
2022-12-25T13:41:47.392Z,31.03
2022-12-25T13:44:24.285Z,30.67
2022-12-25T13:46:50.532Z,36.47
2022-12-25T13:49:22.550Z,33.50
2022-12-25T13:51:50.173Z,33.73
2022-12-25T13:54:17.973Z,40.20
2022-12-25T13:56:53.947Z,36.13
2022-12-25T13:59:24.045Z,43.83
2022-12-25T14:01:53.102Z,50.40
2022-12-25T14:04:23.984Z,46.30
2022-12-25T14:06:51.722Z,40.77
2022-12-25T14:09:18.902Z,36.80
2022-12-25T14:11:49.725Z,37.93
2022-12-25T14:14:23.222Z,48.33
2022-12-25T14:16:52.687Z,54.07
2022-12-25T14:19:26.016Z,45.97
2022-12-25T14:22:01.705Z,48.07
2022-12-25T14:24:30.546Z,56.60
2022-12-25T14:26:59.817Z,51.97
2022-12-25T14:29:32.145Z,54.83
2022-12-25T14:31:59.887Z,44.60
2022-12-25T14:34:28.769Z,44.30
2022-12-25T14:36:55.619Z,41.53
2022-12-25T14:39:27.662Z,45.67
2022-12-25T14:41:53.980Z,53.13
2022-12-25T14:44:40.297Z,47.60
2022-12-25T14:47:09.601Z,50.60
2022-12-25T14:49:36.575Z,45.77
2022-12-25T14:52:28.878Z,46.33
2022-12-25T14:55:01.426Z,51.97
2022-12-25T14:57:32.531Z,45.90
2022-12-25T15:00:03.939Z,43.20
2022-12-25T15:02:39.822Z,42.97
2022-12-25T15:05:24.297Z,45.20
2022-12-25T15:08:18.673Z,46.83
2022-12-25T15:11:02.552Z,45.73
2022-12-25T15:13:30.528Z,37.90
2022-12-25T15:16:11.809Z,41.03
2022-12-25T15:18:41.165Z,39.30
2022-12-25T15:21:30.828Z,39.53
2022-12-25T15:23:58.484Z,39.13
2022-12-25T15:26:26.872Z,35.27
2022-12-25T15:28:53.293Z,32.40
2022-12-25T15:31:28.815Z,35.30
2022-12-25T15:33:57.425Z,30.70
2022-12-25T15:36:24.916Z,31.30
2022-12-25T15:38:51.453Z,33.23
2022-12-25T15:41:57.088Z,29.00
2022-12-25T15:44:24.245Z,27.90
2022-12-25T15:46:51.103Z,34.77
2022-12-25T15:49:17.912Z,28.00
2022-12-25T15:51:45.456Z,31.83
2022-12-25T15:54:12.064Z,28.37
2022-12-25T15:56:43.432Z,25.93
2022-12-25T15:59:14.384Z,28.97
2022-12-25T16:01:45.602Z,29.57
2022-12-25T16:04:11.815Z,26.30
2022-12-25T16:06:38.521Z,27.17
2022-12-25T16:09:04.981Z,28.27
2022-12-25T16:11:31.718Z,24.93
2022-12-25T16:13:57.882Z,28.17
2022-12-25T16:16:25.013Z,30.00
2022-12-25T16:18:51.324Z,33.53
2022-12-25T16:21:20.369Z,27.27
2022-12-25T16:23:46.797Z,25.37
2022-12-25T16:26:13.387Z,30.73
2022-12-25T16:28:39.695Z,28.17
2022-12-25T16:31:06.405Z,26.83
2022-12-25T16:33:32.797Z,29.03
2022-12-25T16:35:59.374Z,35.53
2022-12-25T16:38:26.320Z,30.90
2022-12-25T16:40:58.515Z,32.33
2022-12-25T16:43:25.505Z,30.50
2022-12-25T16:45:52.898Z,34.00
2022-12-25T16:48:19.273Z,29.43
2022-12-25T16:50:45.806Z,26.63
2022-12-25T16:53:12.151Z,36.40
2022-12-25T16:55:38.787Z,30.60
2022-12-25T16:58:05.684Z,31.70
2022-12-25T17:00:32.281Z,31.03
2022-12-25T17:02:59.954Z,32.73
2022-12-25T17:05:27.739Z,29.10
2022-12-25T17:07:54.031Z,31.47
2022-12-25T17:10:20.624Z,31.10
2022-12-25T17:12:46.783Z,27.00
2022-12-25T17:15:13.420Z,31.37
2022-12-25T17:17:39.607Z,29.93
2022-12-25T17:20:06.728Z,31.30
2022-12-25T17:22:33.002Z,30.30
2022-12-25T17:24:59.482Z,33.10
2022-12-25T17:27:26.068Z,32.13
2022-12-25T17:29:52.711Z,32.20
2022-12-25T17:32:19.113Z,34.10
2022-12-25T17:34:46.674Z,35.33
2022-12-25T17:37:12.976Z,34.20
2022-12-25T17:39:39.967Z,28.57
2022-12-25T17:42:06.331Z,35.53
2022-12-25T17:44:33.209Z,30.70
2022-12-25T17:46:59.914Z,35.47
2022-12-25T17:49:26.617Z,32.73
2022-12-25T17:51:53.247Z,31.70
2022-12-25T17:54:19.984Z,33.87
2022-12-25T17:56:46.344Z,35.73
2022-12-25T17:59:17.480Z,34.20
2022-12-25T18:01:45.035Z,33.70
2022-12-25T18:04:12.577Z,34.63
2022-12-25T18:06:39.284Z,32.00
2022-12-25T18:09:06.628Z,33.80
2022-12-25T18:11:33.312Z,33.60
2022-12-25T18:14:04.535Z,29.37
2022-12-25T18:16:33.813Z,34.93
2022-12-25T18:19:00.944Z,32.27
2022-12-25T18:21:28.352Z,27.03
2022-12-25T18:23:55.288Z,32.37
2022-12-25T18:26:22.056Z,32.47
2022-12-25T18:28:49.278Z,36.43
2022-12-25T18:31:21.692Z,33.30
2022-12-25T18:33:49.484Z,40.90
2022-12-25T18:36:22.251Z,33.67
2022-12-25T18:38:50.273Z,32.20
2022-12-25T18:41:17.074Z,37.17
2022-12-25T18:43:54.011Z,31.83
2022-12-25T18:46:24.756Z,35.53
2022-12-25T18:48:53.816Z,29.47
2022-12-25T18:51:20.463Z,36.53
2022-12-25T18:53:47.172Z,35.03
2022-12-25T18:56:16.513Z,34.90
2022-12-25T18:58:44.569Z,34.97
2022-12-25T19:01:13.872Z,38.23
2022-12-25T19:03:40.872Z,38.40
2022-12-25T19:06:07.498Z,36.10
2022-12-25T19:08:34.426Z,38.70
2022-12-25T19:11:05.975Z,39.00
2022-12-25T19:13:32.613Z,38.00
2022-12-25T19:16:00.384Z,39.53
2022-12-25T19:18:27.405Z,39.20
2022-12-25T19:20:53.745Z,35.97
2022-12-25T19:23:20.420Z,35.83
2022-12-25T19:25:47.107Z,35.43
2022-12-25T19:28:13.780Z,35.73
2022-12-25T19:30:40.357Z,35.00
2022-12-25T19:33:09.977Z,32.03
2022-12-25T19:35:40.049Z,39.80
2022-12-25T19:38:06.919Z,32.40
2022-12-25T19:40:38.004Z,34.63
2022-12-25T19:43:05.109Z,32.57
2022-12-25T19:45:31.904Z,33.53
2022-12-25T19:47:58.554Z,36.63
2022-12-25T19:50:30.073Z,30.57
2022-12-25T19:52:58.268Z,37.37
2022-12-25T19:55:24.588Z,33.33
2022-12-25T19:57:51.300Z,33.37
2022-12-25T20:00:17.741Z,37.40
2022-12-25T20:02:44.691Z,30.50
2022-12-25T20:05:11.507Z,34.90
2022-12-25T20:07:38.143Z,35.93
2022-12-25T20:10:04.726Z,38.13
2022-12-25T20:12:31.805Z,32.00
2022-12-25T20:14:58.221Z,35.47
2022-12-25T20:17:25.189Z,28.13
2022-12-25T20:19:51.700Z,36.17
2022-12-25T20:22:18.384Z,31.33
2022-12-25T20:24:47.064Z,33.70
2022-12-25T20:27:14.652Z,34.90
2022-12-25T20:29:41.116Z,32.07
2022-12-25T20:32:08.850Z,32.83
2022-12-25T20:34:35.154Z,27.30
2022-12-25T20:37:02.069Z,31.90
2022-12-25T20:39:28.641Z,32.47
2022-12-25T20:41:55.350Z,34.77
2022-12-25T20:44:21.865Z,29.30
2022-12-25T20:46:48.746Z,30.10
2022-12-25T20:49:15.047Z,33.50
2022-12-25T20:51:41.636Z,29.43
2022-12-25T20:54:09.180Z,35.17
2022-12-25T20:56:36.267Z,31.57
2022-12-25T20:59:02.846Z,29.17
2022-12-25T21:01:30.350Z,31.83
2022-12-25T21:03:58.215Z,31.20
2022-12-25T21:06:25.255Z,32.30
2022-12-25T21:08:52.236Z,32.17
2022-12-25T21:11:20.635Z,33.23
2022-12-25T21:13:48.045Z,30.10
2022-12-25T21:16:20.912Z,29.77
2022-12-25T21:18:48.996Z,25.90
2022-12-25T21:21:15.861Z,28.27
2022-12-25T21:23:42.480Z,33.63
2022-12-25T21:26:32.505Z,31.40
2022-12-25T21:29:01.803Z,27.97
2022-12-25T21:31:29.958Z,27.97
2022-12-25T21:33:57.251Z,29.87
2022-12-25T21:36:28.988Z,28.60
2022-12-25T21:38:58.417Z,26.63
2022-12-25T21:41:26.724Z,32.83
2022-12-25T21:43:53.684Z,27.50
2022-12-25T21:46:20.646Z,33.30
2022-12-25T21:48:47.357Z,28.03
2022-12-25T21:51:38.297Z,35.63
2022-12-25T21:54:05.659Z,31.87
2022-12-25T21:56:39.837Z,25.63
2022-12-25T21:59:16.988Z,32.70
2022-12-25T22:01:44.879Z,29.20
2022-12-25T22:04:12.614Z,25.70
2022-12-25T22:06:57.849Z,25.03
2022-12-25T22:09:24.500Z,23.63
2022-12-25T22:12:09.784Z,27.00
2022-12-25T22:14:54.706Z,25.40
2022-12-25T22:17:46.861Z,28.40
2022-12-25T22:20:21.028Z,24.07
2022-12-25T22:22:47.778Z,23.93
2022-12-25T22:25:15.260Z,24.47
2022-12-25T22:27:43.854Z,23.80
2022-12-25T22:30:16.033Z,27.43
2022-12-25T22:32:42.834Z,22.57
2022-12-25T22:35:11.403Z,23.20
2022-12-25T22:37:39.078Z,23.27
2022-12-25T22:40:07.783Z,19.70
2022-12-25T22:42:34.433Z,27.10
2022-12-25T22:45:00.973Z,25.50
2022-12-25T22:47:28.154Z,24.67
2022-12-25T22:49:54.505Z,23.90
2022-12-25T22:52:21.277Z,19.93
2022-12-25T22:54:47.635Z,21.60
2022-12-25T22:57:14.247Z,26.30
2022-12-25T22:59:40.725Z,23.03
2022-12-25T23:02:07.694Z,23.97
2022-12-25T23:04:34.089Z,20.40
2022-12-25T23:07:01.270Z,21.33
2022-12-25T23:09:27.973Z,21.50
2022-12-25T23:11:56.136Z,19.40
2022-12-25T23:14:38.685Z,20.70
2022-12-25T23:17:29.950Z,18.10
2022-12-25T23:20:17.793Z,19.00
2022-12-25T23:23:03.930Z,19.03
2022-12-25T23:25:48.685Z,17.77
2022-12-25T23:28:35.225Z,14.90
2022-12-25T23:31:01.435Z,16.60
2022-12-25T23:33:28.099Z,16.17
2022-12-25T23:35:54.274Z,19.13
2022-12-25T23:38:20.728Z,16.70
2022-12-25T23:40:46.950Z,15.77
2022-12-25T23:43:13.594Z,20.17
2022-12-25T23:45:39.796Z,15.90
2022-12-25T23:48:06.324Z,24.70
2022-12-25T23:50:33.178Z,19.40
2022-12-25T23:52:59.657Z,17.60
2022-12-25T23:55:25.789Z,16.30
2022-12-25T23:57:52.334Z,19.10
